Time;durP1;ratioP1;P1;durP2;ratioP2;P2;SDS_P1;SDS_P2;PMS_P1;PMS_P2;Temp;Humidity;BMP_temperature;BMP_pressure;BME280_temperature;BME280_humidity;BME280_pressure;Samples;Min_cycle;Max_cycle;Signal;HPM_P1;HPM_P2
2022/01/27 00:07:35;;;;;;;57.97;34.92;;;5.00;99.90;;;;;;4808536;29;20045;-79
2022/01/27 00:12:46;;;;;;;52.03;33.08;;;5.10;99.90;;;;;;4805858;29;20034;-78
2022/01/27 00:15:14;;;;;;;48.00;29.77;;;5.10;99.90;;;;;;4812514;29;20022;-78
2022/01/27 00:18:02;;;;;;;51.00;33.97;;;5.10;99.90;;;;;;5180958;23;21314;31
2022/01/27 00:21:14;;;;;;;48.80;31.58;;;5.10;99.90;;;;;;5113720;23;20027;31
2022/01/27 00:23:41;;;;;;;57.72;34.35;;;5.10;99.90;;;;;;5376384;24;20050;-80
2022/01/27 00:26:09;;;;;;;47.53;29.13;;;5.00;99.90;;;;;;4859552;29;20468;-80
2022/01/27 00:28:35;;;;;;;52.08;31.02;;;5.10;99.90;;;;;;4861850;29;20033;-80
2022/01/27 00:31:01;;;;;;;44.58;28.77;;;5.10;99.90;;;;;;4856027;29;21145;-80
2022/01/27 00:33:28;;;;;;;47.60;29.43;;;5.10;99.90;;;;;;4845892;29;20037;-80
2022/01/27 00:35:54;;;;;;;46.83;29.33;;;5.10;99.90;;;;;;4845411;29;20037;-79
2022/01/27 00:38:21;;;;;;;44.25;29.30;;;5.10;99.90;;;;;;4851562;29;20045;-79
2022/01/27 00:40:47;;;;;;;45.33;28.08;;;5.00;99.90;;;;;;4860802;29;21193;-79
2022/01/27 00:43:14;;;;;;;47.90;29.33;;;5.10;99.90;;;;;;4858567;29;20036;-79
2022/01/27 00:45:40;;;;;;;44.13;26.20;;;5.10;99.90;;;;;;4862456;29;20065;-78
2022/01/27 00:48:07;;;;;;;45.03;28.27;;;5.10;99.90;;;;;;4845335;29;20032;-78
2022/01/27 00:50:35;;;;;;;43.67;26.58;;;5.10;99.90;;;;;;4841298;29;20111;-78
2022/01/27 00:53:06;;;;;;;43.42;26.30;;;5.10;99.90;;;;;;4839628;29;20392;-79
2022/01/27 00:55:38;;;;;;;40.17;25.00;;;5.10;99.90;;;;;;4845590;29;20037;-79
2022/01/27 00:58:26;;;;;;;;;;;5.10;99.90;;;;;;4841076;29;20033;-80
2022/01/27 01:00:58;;;;;;;38.95;24.02;;;5.10;99.90;;;;;;4839203;29;19919;-80
2022/01/27 01:03:33;;;;;;;38.60;23.85;;;5.10;99.90;;;;;;4830132;29;20609;-80
2022/01/27 01:16:47;;;;;;;32.55;20.50;;;5.20;99.90;;;;;;4844184;29;20025;-79
2022/01/27 01:29:55;;;;;;;37.40;24.77;;;5.20;99.90;;;;;;4828389;29;20053;-80
2022/01/27 01:32:41;;;;;;;41.58;26.55;;;5.20;99.90;;;;;;4823308;29;20056;-80
2022/01/27 01:35:09;;;;;;;42.72;27.55;;;5.20;99.90;;;;;;4839645;29;20029;-79
2022/01/27 01:37:39;;;;;;;44.60;28.97;;;5.20;99.90;;;;;;4826651;29;20033;-80
2022/01/27 01:40:07;;;;;;;46.05;28.02;;;5.20;99.90;;;;;;4840931;29;20022;-80
2022/01/27 01:42:34;;;;;;;47.13;28.55;;;5.20;99.90;;;;;;4839891;29;20584;-79
2022/01/27 01:45:03;;;;;;;44.53;28.33;;;5.20;99.90;;;;;;4813435;29;20025;-81
2022/01/27 01:47:30;;;;;;;43.45;26.63;;;5.20;99.90;;;;;;4825977;29;20512;-79
2022/01/27 01:49:56;;;;;;;42.15;26.52;;;5.10;99.90;;;;;;4825691;29;20864;-79
2022/01/27 01:52:24;;;;;;;45.58;28.35;;;5.10;99.90;;;;;;4838576;29;20025;-80
2022/01/27 01:54:54;;;;;;;46.45;27.98;;;5.10;99.90;;;;;;4827058;29;20025;-79
2022/01/27 01:57:20;;;;;;;41.13;25.60;;;5.10;99.90;;;;;;4826091;29;20052;-80
2022/01/27 01:59:47;;;;;;;42.33;27.58;;;5.10;99.90;;;;;;4826789;29;20486;-79
2022/01/27 02:02:14;;;;;;;46.60;29.63;;;5.10;99.90;;;;;;4838055;29;20754;-80
2022/01/27 02:04:41;;;;;;;41.50;27.40;;;5.10;99.90;;;;;;4855543;29;20036;-80
2022/01/27 02:07:18;;;;;;;43.27;28.13;;;5.10;99.90;;;;;;4825307;29;20041;-80
2022/01/27 02:18:09;;;;;;;39.58;26.90;;;5.10;99.90;;;;;;4841568;29;22487;-78
2022/01/27 02:20:40;;;;;;;43.60;27.42;;;5.10;99.90;;;;;;4826019;29;20025;-79
2022/01/27 02:23:10;;;;;;;36.45;25.92;;;5.10;99.90;;;;;;4840645;29;20397;-78
2022/01/27 02:25:37;;;;;;;43.20;25.85;;;5.10;99.90;;;;;;4824767;29;20046;-78
2022/01/27 02:28:07;;;;;;;45.05;27.40;;;5.10;99.90;;;;;;4837423;29;20026;-79
2022/01/27 02:30:33;;;;;;;42.90;27.27;;;5.10;99.90;;;;;;4823593;29;20030;-78
2022/01/27 02:33:00;;;;;;;42.30;26.55;;;5.10;99.90;;;;;;4809652;29;20033;-78
2022/01/27 02:35:32;;;;;;;43.55;26.42;;;5.10;99.90;;;;;;4810876;29;20044;-77
2022/01/27 02:37:58;;;;;;;40.40;25.23;;;5.10;99.90;;;;;;4808203;29;20377;-78
2022/01/27 02:40:36;;;;;;;46.42;27.15;;;5.10;99.90;;;;;;4809531;29;20294;-78
2022/01/27 02:43:05;;;;;;;44.83;28.55;;;5.10;99.90;;;;;;4807223;29;20362;-78
2022/01/27 02:45:44;;;;;;;44.95;28.02;;;5.10;99.90;;;;;;4838695;29;20033;-79
2022/01/27 02:48:14;;;;;;;40.83;26.00;;;5.10;99.90;;;;;;4812370;29;20365;-79
2022/01/27 02:50:42;;;;;;;42.95;25.80;;;5.10;99.90;;;;;;4838005;29;20037;-79
2022/01/27 02:53:09;;;;;;;41.20;25.67;;;5.10;99.90;;;;;;4810291;29;20598;-80
2022/01/27 02:55:37;;;;;;;50.15;28.48;;;5.10;99.90;;;;;;4825836;29;20025;-79
2022/01/27 02:58:04;;;;;;;41.97;25.92;;;5.10;99.90;;;;;;4836791;29;20049;-79
2022/01/27 03:00:34;;;;;;;42.55;24.23;;;5.10;99.90;;;;;;4835210;29;21573;-79
2022/01/27 03:03:00;;;;;;;42.88;26.27;;;5.10;99.90;;;;;;4807156;29;20021;-79
2022/01/27 03:05:30;;;;;;;41.45;26.45;;;5.20;99.90;;;;;;4809147;29;20029;-79
2022/01/27 03:07:56;;;;;;;45.80;27.77;;;5.10;99.90;;;;;;4825158;29;20041;-78
2022/01/27 03:10:28;;;;;;;39.67;26.00;;;5.10;99.90;;;;;;4823581;29;20036;-79
2022/01/27 03:12:59;;;;;;;42.28;25.48;;;5.20;99.90;;;;;;4805201;29;20037;-79
2022/01/27 03:15:27;;;;;;;40.65;25.90;;;5.20;99.90;;;;;;4823452;29;20377;-79
2022/01/27 03:17:54;;;;;;;39.25;25.13;;;5.20;99.90;;;;;;4822721;29;20413;-79
2022/01/27 03:20:20;;;;;;;42.15;25.83;;;5.20;99.90;;;;;;4822139;29;20625;-78
2022/01/27 03:22:47;;;;;;;45.15;27.35;;;5.20;99.90;;;;;;4839906;29;20355;-78
2022/01/27 03:25:13;;;;;;;43.40;26.40;;;5.20;99.90;;;;;;4812044;29;20494;-79
2022/01/27 03:27:46;;;;;;;41.47;26.70;;;5.20;99.90;;;;;;4824454;29;20053;-78
2022/01/27 03:30:12;;;;;;;39.80;25.20;;;5.20;99.90;;;;;;4824681;29;20033;-78
2022/01/27 03:32:39;;;;;;;38.97;23.77;;;5.20;99.90;;;;;;4824185;29;20412;-79
2022/01/27 03:35:06;;;;;;;42.50;26.02;;;5.20;99.90;;;;;;4840524;29;20034;-79
2022/01/27 03:37:32;;;;;;;40.13;25.70;;;5.20;99.90;;;;;;4823750;29;20034;-78
2022/01/27 03:39:59;;;;;;;44.93;26.90;;;5.20;99.90;;;;;;4828034;29;20465;-78
2022/01/27 03:42:25;;;;;;;41.03;25.88;;;5.20;99.90;;;;;;4839256;29;20033;-78
2022/01/27 03:44:52;;;;;;;36.30;23.80;;;5.20;99.90;;;;;;4826160;29;20465;-79
2022/01/27 03:47:18;;;;;;;42.88;28.58;;;5.20;99.90;;;;;;4825669;29;20068;-79
2022/01/27 03:49:44;;;;;;;40.90;25.95;;;5.20;99.90;;;;;;4852580;29;20037;-79
2022/01/27 03:52:11;;;;;;;39.70;26.27;;;5.20;99.90;;;;;;4841619;29;20417;-78
2022/01/27 03:54:37;;;;;;;43.55;26.33;;;5.20;99.90;;;;;;4841187;29;20024;-78
2022/01/27 03:57:04;;;;;;;38.78;25.73;;;5.20;99.90;;;;;;4827051;29;20026;-78
2022/01/27 03:59:30;;;;;;;36.97;23.67;;;5.20;99.90;;;;;;4828204;29;20033;-78
2022/01/27 04:01:57;;;;;;;39.28;25.13;;;5.30;99.90;;;;;;4810856;29;20053;-78
2022/01/27 04:04:25;;;;;;;42.58;26.17;;;5.30;99.90;;;;;;4812506;29;20030;-79
2022/01/27 04:06:52;;;;;;;36.17;23.98;;;5.30;99.90;;;;;;4825167;29;20045;-79
2022/01/27 04:09:19;;;;;;;40.83;24.92;;;5.30;99.90;;;;;;4840573;29;20026;-79
2022/01/27 04:11:47;;;;;;;36.63;25.15;;;5.30;99.90;;;;;;4824203;29;20025;-79
2022/01/27 04:14:13;;;;;;;40.40;27.33;;;5.30;99.90;;;;;;4824154;29;20039;-78
2022/01/27 04:16:39;;;;;;;38.25;25.50;;;5.30;99.90;;;;;;4822684;29;20458;-79
2022/01/27 04:19:06;;;;;;;43.85;27.83;;;5.30;99.90;;;;;;4839752;29;20108;-80
2022/01/27 04:21:32;;;;;;;43.55;27.35;;;5.30;99.90;;;;;;4838027;29;20044;-79
2022/01/27 04:23:59;;;;;;;37.42;24.27;;;5.30;99.90;;;;;;4824935;29;20046;-79
2022/01/27 04:26:34;;;;;;;36.28;22.98;;;5.30;99.90;;;;;;4836664;29;20052;-79
2022/01/27 04:29:01;;;;;;;40.50;26.55;;;5.40;99.90;;;;;;4838425;29;20482;-79
2022/01/27 04:31:28;;;;;;;37.67;24.08;;;5.40;99.90;;;;;;4820406;29;20033;-79
2022/01/27 04:33:55;;;;;;;37.33;24.52;;;5.30;99.90;;;;;;4812494;29;20060;-79
2022/01/27 04:36:41;;;;;;;38.50;23.90;;;5.40;99.90;;;;;;4841230;29;20041;-79
2022/01/27 04:39:26;;;;;;;36.03;22.77;;;5.30;99.90;;;;;;4842345;29;20030;-78
2022/01/27 04:42:00;;;;;;;44.08;25.90;;;5.40;99.90;;;;;;4839865;29;20500;-79
2022/01/27 04:44:34;;;;;;;38.97;25.48;;;5.30;99.90;;;;;;4827717;29;20033;-78
2022/01/27 04:47:07;;;;;;;43.83;27.13;;;5.40;99.90;;;;;;4825690;29;20049;-79
2022/01/27 04:49:34;;;;;;;38.08;24.33;;;5.40;99.90;;;;;;4838074;29;20042;-78
2022/01/27 04:52:00;;;;;;;36.45;22.13;;;5.30;99.90;;;;;;4854305;29;20807;-78
2022/01/27 04:54:40;;;;;;;36.67;21.88;;;5.40;99.90;;;;;;4825545;29;20496;-77
2022/01/27 04:57:07;;;;;;;40.80;24.40;;;5.40;99.90;;;;;;4838643;29;20041;-78
2022/01/27 04:59:39;;;;;;;38.10;22.67;;;5.40;99.90;;;;;;4840631;29;20041;-80
2022/01/27 05:02:14;;;;;;;41.00;24.65;;;5.40;99.90;;;;;;4821506;29;20426;-78
2022/01/27 05:04:43;;;;;;;37.17;22.58;;;5.40;99.90;;;;;;4825042;29;20592;-78
2022/01/27 05:07:11;;;;;;;36.70;22.80;;;5.40;99.90;;;;;;4825850;29;20037;-78
2022/01/27 05:09:38;;;;;;;39.38;22.38;;;5.40;99.90;;;;;;4823062;29;20046;-78
2022/01/27 05:12:17;;;;;;;35.42;23.08;;;5.40;99.90;;;;;;4855297;29;20029;-78
2022/01/27 05:14:43;;;;;;;41.55;23.15;;;5.40;99.90;;;;;;4822282;29;20029;-78
2022/01/27 05:17:09;;;;;;;36.35;23.63;;;5.40;99.90;;;;;;4826185;29;20509;-79
2022/01/27 05:19:35;;;;;;;41.35;23.27;;;5.50;99.90;;;;;;4825070;29;20561;-79
2022/01/27 05:22:02;;;;;;;40.58;23.15;;;5.50;99.90;;;;;;4811860;29;20492;-79
2022/01/27 05:24:28;;;;;;;37.85;22.23;;;5.40;99.90;;;;;;4822101;29;20373;-79
2022/01/27 05:26:55;;;;;;;39.50;21.67;;;5.40;99.90;;;;;;4824866;29;20064;-78
2022/01/27 05:29:21;;;;;;;39.58;22.77;;;5.50;99.90;;;;;;4836552;29;20025;-79
2022/01/27 05:31:49;;;;;;;37.72;21.85;;;5.50;99.90;;;;;;4806042;29;20044;-79
2022/01/27 05:34:15;;;;;;;37.83;21.70;;;5.50;99.90;;;;;;4837649;29;20030;-79
2022/01/27 05:36:42;;;;;;;38.38;22.73;;;5.50;99.90;;;;;;4827066;29;20044;-79
2022/01/27 05:39:08;;;;;;;38.72;22.08;;;5.50;99.90;;;;;;4839512;29;20386;-79
2022/01/27 05:41:34;;;;;;;37.65;22.50;;;5.50;99.90;;;;;;4810957;29;20037;-79
2022/01/27 05:44:01;;;;;;;40.08;22.88;;;5.60;99.90;;;;;;4822051;29;20518;-79
2022/01/27 05:46:27;;;;;;;36.22;21.88;;;5.50;99.90;;;;;;4841182;29;20041;-79
2022/01/27 05:48:53;;;;;;;36.00;22.38;;;5.50;99.90;;;;;;4822357;29;20030;-79
2022/01/27 05:51:20;;;;;;;39.55;20.85;;;5.50;99.90;;;;;;4809811;29;20018;-79
2022/01/27 05:53:47;;;;;;;33.85;20.20;;;5.50;99.90;;;;;;4840014;29;20477;-79
2022/01/27 05:56:17;;;;;;;35.40;20.83;;;5.50;99.90;;;;;;4811255;29;20021;-80
2022/01/27 05:58:43;;;;;;;38.67;22.70;;;5.50;99.90;;;;;;4823025;29;20487;-79
2022/01/27 06:01:10;;;;;;;37.15;20.35;;;5.50;99.90;;;;;;4823196;29;20064;-80
2022/01/27 06:03:36;;;;;;;37.60;21.73;;;5.50;99.90;;;;;;4823316;29;20504;-79
2022/01/27 06:06:02;;;;;;;38.77;21.10;;;5.40;99.90;;;;;;4838899;29;20045;-80
2022/01/27 06:08:30;;;;;;;33.10;19.23;;;5.40;99.90;;;;;;4838788;29;20498;-79
2022/01/27 06:10:57;;;;;;;34.97;20.20;;;5.40;99.90;;;;;;4823046;29;20509;-79
2022/01/27 06:13:24;;;;;;;36.42;20.80;;;5.40;99.90;;;;;;4834919;29;20021;-79
2022/01/27 06:15:51;;;;;;;35.90;19.90;;;5.40;99.90;;;;;;4839704;29;20500;-80
2022/01/27 06:18:20;;;;;;;32.03;19.73;;;5.40;99.90;;;;;;4841712;29;20414;-80
2022/01/27 06:20:47;;;;;;;35.33;19.50;;;5.40;99.90;;;;;;4834344;29;20030;-80
2022/01/27 06:23:14;;;;;;;36.87;18.73;;;5.40;99.90;;;;;;4822516;29;20465;-80
2022/01/27 06:25:41;;;;;;;33.08;18.58;;;5.40;99.90;;;;;;4822769;29;20498;-79
2022/01/27 06:28:07;;;;;;;37.85;19.00;;;5.50;99.90;;;;;;4837518;29;20058;-80
2022/01/27 06:30:36;;;;;;;35.75;19.77;;;5.50;99.90;;;;;;4821748;29;20053;-80
2022/01/27 06:33:06;;;;;;;41.35;21.55;;;5.50;99.90;;;;;;4823224;29;20343;-79
2022/01/27 06:35:33;;;;;;;45.63;20.63;;;5.50;99.90;;;;;;4839984;29;20022;-78
2022/01/27 06:37:59;;;;;;;33.65;19.38;;;5.60;99.90;;;;;;4839264;29;20029;-80
2022/01/27 06:40:26;;;;;;;32.17;16.92;;;5.60;99.90;;;;;;4809598;29;20033;-80
2022/01/27 06:42:52;;;;;;;35.30;18.00;;;5.60;99.90;;;;;;4835571;29;20394;-79
2022/01/27 06:45:19;;;;;;;32.03;17.42;;;5.70;99.90;;;;;;4826994;29;20493;-78
2022/01/27 06:47:45;;;;;;;35.63;16.67;;;5.70;99.90;;;;;;4820819;29;20034;-79
2022/01/27 06:50:11;;;;;;;32.40;17.02;;;5.70;99.90;;;;;;4825272;29;20338;-82
2022/01/27 06:52:39;;;;;;;34.45;17.30;;;5.80;99.90;;;;;;4833762;29;20034;-78
2022/01/27 06:55:05;;;;;;;32.60;17.70;;;5.80;99.90;;;;;;4842546;29;20026;-80
2022/01/27 06:57:50;;;;;;;;;;;;;;;;;;;;;
2022/01/27 07:00:18;;;;;;;32.42;16.77;;;5.90;99.90;;;;;;4841349;29;20665;-80
2022/01/27 07:02:44;;;;;;;30.10;16.45;;;6.00;99.90;;;;;;4819011;29;20034;-78
2022/01/27 07:05:14;;;;;;;42.20;22.35;;;6.00;99.90;;;;;;4837491;29;20491;-81
2022/01/27 07:07:42;;;;;;;36.92;18.63;;;6.00;99.90;;;;;;4821765;29;20667;-80
2022/01/27 07:10:09;;;;;;;32.65;15.95;;;6.10;99.90;;;;;;4849416;29;20030;-80
2022/01/27 07:12:38;;;;;;;35.63;17.65;;;6.10;99.90;;;;;;4838553;29;20381;-81
2022/01/27 07:15:05;;;;;;;30.98;16.20;;;6.10;99.90;;;;;;4824789;29;20034;-82
2022/01/27 07:17:31;;;;;;;34.05;18.55;;;6.10;99.90;;;;;;4821704;29;20048;-84
2022/01/27 07:19:58;;;;;;;31.10;16.35;;;6.10;99.90;;;;;;4821920;29;20061;-79
2022/01/27 07:22:24;;;;;;;41.80;19.52;;;6.10;99.90;;;;;;4839326;29;20021;-79
2022/01/27 07:24:50;;;;;;;32.85;17.98;;;6.10;99.90;;;;;;4837796;29;20505;-81
2022/01/27 07:27:17;;;;;;;34.83;18.35;;;6.10;99.90;;;;;;4824364;29;20042;-82
2022/01/27 07:29:45;;;;;;;34.30;17.50;;;6.00;99.90;;;;;;4824318;29;20042;-81
2022/01/27 07:32:11;;;;;;;36.97;19.33;;;6.00;99.90;;;;;;4824156;29;20755;-81
2022/01/27 07:34:37;;;;;;;37.50;20.20;;;6.00;99.90;;;;;;4839614;29;20034;-81
2022/01/27 07:37:04;;;;;;;35.80;19.30;;;6.00;99.90;;;;;;4840930;29;20508;-81
2022/01/27 07:39:30;;;;;;;39.47;20.08;;;6.00;99.90;;;;;;4827115;29;20042;-81
2022/01/27 07:42:00;;;;;;;38.90;21.52;;;5.90;99.90;;;;;;4839979;29;20038;-81
2022/01/27 07:44:29;;;;;;;40.15;21.90;;;5.90;99.90;;;;;;4826941;29;20555;-81
2022/01/27 07:46:55;;;;;;;38.63;19.88;;;5.90;99.90;;;;;;4821491;29;20410;-84
2022/01/27 07:49:22;;;;;;;37.90;21.55;;;5.90;99.90;;;;;;4842208;29;20385;-83
2022/01/27 07:51:48;;;;;;;34.83;18.70;;;5.90;99.90;;;;;;4838189;29;20022;-80
2022/01/27 07:54:15;;;;;;;42.45;21.35;;;5.90;99.90;;;;;;4839043;29;20033;-80
2022/01/27 07:56:42;;;;;;;42.88;22.75;;;5.90;99.90;;;;;;4837075;29;20029;-78
2022/01/27 07:59:08;;;;;;;62.33;26.13;;;5.90;99.90;;;;;;4839427;29;20034;-77
2022/01/27 08:01:34;;;;;;;44.25;21.48;;;5.90;99.90;;;;;;4806592;29;20053;-80
2022/01/27 08:04:01;;;;;;;37.83;21.08;;;5.90;99.90;;;;;;4808597;29;20038;-79
2022/01/27 08:06:27;;;;;;;31.85;18.95;;;5.90;99.90;;;;;;4825858;29;20029;-80
2022/01/27 08:08:53;;;;;;;42.75;21.55;;;5.90;99.90;;;;;;4813221;29;20066;-80
2022/01/27 08:11:20;;;;;;;37.80;21.00;;;5.90;99.90;;;;;;4825213;29;20041;-81
2022/01/27 08:13:46;;;;;;;40.75;22.17;;;5.90;99.90;;;;;;4811158;29;20031;-80
2022/01/27 08:16:12;;;;;;;40.50;21.33;;;5.90;99.90;;;;;;4826671;29;20041;-80
2022/01/27 08:18:39;;;;;;;41.60;22.45;;;6.00;99.90;;;;;;4836420;29;20041;-79
2022/01/27 08:21:05;;;;;;;39.53;20.20;;;5.90;99.90;;;;;;4839228;29;20025;-79
2022/01/27 08:23:31;;;;;;;33.97;19.30;;;5.90;99.90;;;;;;4823315;29;20065;-80
2022/01/27 08:26:05;;;;;;;45.88;22.73;;;6.00;99.90;;;;;;4812974;29;20654;-80
2022/01/27 08:28:39;;;;;;;37.28;20.33;;;6.00;99.90;;;;;;4811754;29;20038;-80
2022/01/27 08:31:06;;;;;;;31.23;17.60;;;6.00;99.90;;;;;;4826284;29;20037;-80
2022/01/27 08:33:33;;;;;;;31.70;18.58;;;6.00;99.90;;;;;;4814281;29;20037;-80
2022/01/27 08:36:00;;;;;;;37.03;20.52;;;6.00;99.90;;;;;;4842207;29;20053;-80
2022/01/27 08:38:28;;;;;;;32.30;19.15;;;6.10;99.90;;;;;;4841271;29;20058;-81
2022/01/27 08:40:55;;;;;;;39.53;22.00;;;6.10;99.90;;;;;;4811595;29;20052;-80
2022/01/27 08:43:22;;;;;;;30.33;18.10;;;6.00;99.90;;;;;;4840839;29;20032;-80
2022/01/27 08:45:50;;;;;;;27.95;17.83;;;6.10;99.90;;;;;;4839934;29;20034;-79
2022/01/27 08:48:19;;;;;;;30.33;17.90;;;6.10;99.90;;;;;;4824251;29;20033;-79
2022/01/27 08:50:51;;;;;;;34.42;19.08;;;6.10;99.90;;;;;;4822087;29;20113;-79
2022/01/27 08:53:18;;;;;;;31.85;17.92;;;6.10;99.90;;;;;;4824092;29;20034;-79
2022/01/27 08:55:45;;;;;;;38.83;20.23;;;6.10;99.90;;;;;;4823809;29;20028;-79
2022/01/27 08:58:12;;;;;;;34.55;20.67;;;6.20;99.90;;;;;;4841682;29;20028;-79
2022/01/27 09:00:39;;;;;;;38.42;21.38;;;6.20;99.90;;;;;;4824286;29;20041;-80
2022/01/27 09:03:05;;;;;;;28.55;18.35;;;6.20;99.90;;;;;;4839503;29;20030;-80
2022/01/27 09:05:31;;;;;;;33.67;17.55;;;6.20;99.90;;;;;;4825840;29;20026;-79
2022/01/27 09:07:58;;;;;;;32.47;17.88;;;6.30;99.90;;;;;;4840439;29;20048;-79
2022/01/27 09:10:27;;;;;;;32.05;16.52;;;6.30;99.90;;;;;;4840097;29;20381;-79
2022/01/27 09:12:53;;;;;;;27.92;16.45;;;6.30;99.90;;;;;;4810398;29;20025;-79
2022/01/27 09:15:20;;;;;;;35.35;18.27;;;6.30;99.90;;;;;;4841530;29;20032;-80
2022/01/27 09:17:46;;;;;;;29.50;17.13;;;6.30;99.90;;;;;;4808254;29;20042;-80
2022/01/27 09:20:12;;;;;;;26.85;16.17;;;6.30;99.90;;;;;;4824749;29;20378;-77
2022/01/27 09:22:39;;;;;;;28.05;16.10;;;6.40;99.90;;;;;;4838924;29;20045;-76
2022/01/27 09:25:15;;;;;;;32.42;17.92;;;6.40;99.90;;;;;;4836915;29;20397;-77
2022/01/27 09:27:43;;;;;;;28.20;17.85;;;6.40;99.90;;;;;;4823312;29;20041;-76
2022/01/27 09:30:11;;;;;;;31.13;17.33;;;6.40;99.90;;;;;;4825861;29;20025;-76
2022/01/27 09:32:38;;;;;;;28.40;16.38;;;6.50;99.90;;;;;;4821772;29;20595;-77
2022/01/27 09:35:05;;;;;;;30.67;16.65;;;6.50;99.90;;;;;;4809161;29;20033;-77
2022/01/27 09:37:32;;;;;;;25.48;14.45;;;6.50;99.90;;;;;;4837923;29;20026;-77
2022/01/27 09:39:58;;;;;;;23.42;13.52;;;6.50;99.90;;;;;;4824745;29;20040;-76
2022/01/27 09:42:27;;;;;;;29.02;16.40;;;6.50;99.90;;;;;;4822516;29;20496;-76
2022/01/27 09:44:54;;;;;;;24.50;15.13;;;6.50;99.90;;;;;;4840008;29;20017;-76
2022/01/27 09:47:24;;;;;;;28.88;14.65;;;6.50;99.90;;;;;;4820900;29;20040;-78
2022/01/27 09:49:55;;;;;;;27.77;15.50;;;6.50;99.90;;;;;;4821825;29;20113;-77
2022/01/27 09:52:21;;;;;;;33.10;18.60;;;6.50;99.90;;;;;;4841241;29;20036;-76
2022/01/27 09:54:48;;;;;;;27.75;17.05;;;6.60;99.90;;;;;;4838071;29;20022;-76
2022/01/27 09:57:18;;;;;;;27.20;14.95;;;6.60;99.90;;;;;;4807516;29;20708;-77
2022/01/27 09:59:46;;;;;;;22.20;13.77;;;6.60;99.90;;;;;;4824665;29;20018;-77
2022/01/27 10:02:26;;;;;;;29.38;16.45;;;6.60;99.90;;;;;;4836874;29;21187;-77
2022/01/27 10:04:57;;;;;;;25.08;14.82;;;6.60;99.90;;;;;;4839038;29;20025;-80
2022/01/27 10:07:36;;;;;;;18.45;11.15;;;6.60;99.90;;;;;;4836561;29;20482;-80
2022/01/27 10:10:16;;;;;;;21.35;13.18;;;6.70;99.90;;;;;;4838282;29;20025;-80
2022/01/27 10:12:51;;;;;;;22.85;13.43;;;6.70;99.90;;;;;;4839623;29;20026;-80
2022/01/27 10:15:23;;;;;;;24.38;14.57;;;6.70;99.90;;;;;;4840891;29;20034;-80
2022/01/27 10:18:02;;;;;;;23.33;14.30;;;6.70;99.90;;;;;;4837288;29;20041;-80
2022/01/27 10:20:28;;;;;;;22.95;15.45;;;6.80;99.90;;;;;;4836571;29;20033;-80
2022/01/27 10:23:17;;;;;;;36.53;19.98;;;6.80;99.90;;;;;;4808439;29;20042;-79
2022/01/27 10:25:54;;;;;;;23.63;14.20;;;6.80;99.90;;;;;;4819810;29;20041;-79
2022/01/27 10:31:21;;;;;;;21.48;12.90;;;6.90;99.90;;;;;;4822037;29;20033;-80
2022/01/27 10:33:53;;;;;;;18.85;10.73;;;6.90;99.90;;;;;;4823977;29;20033;-80
2022/01/27 10:36:36;;;;;;;20.80;12.07;;;7.00;99.90;;;;;;4840438;29;20033;-79
2022/01/27 10:39:06;;;;;;;18.05;11.55;;;7.00;99.90;;;;;;4841045;29;20030;-79
2022/01/27 10:41:35;;;;;;;16.02;10.32;;;7.00;99.90;;;;;;4824492;29;20033;-80
2022/01/27 10:44:10;;;;;;;22.02;12.50;;;7.00;99.90;;;;;;4824099;29;20064;-82
2022/01/27 10:46:44;;;;;;;20.45;11.48;;;7.00;99.90;;;;;;4822284;29;20026;-80
2022/01/27 10:49:20;;;;;;;22.77;12.93;;;7.00;99.90;;;;;;4825471;29;20037;-79
2022/01/27 10:51:54;;;;;;;14.55;10.95;;;7.10;99.90;;;;;;4823335;29;20413;-79
2022/01/27 10:54:38;;;;;;;15.68;10.32;;;7.10;99.90;;;;;;4807758;29;20059;-79
2022/01/27 10:57:12;;;;;;;20.17;13.27;;;7.10;99.90;;;;;;4822542;29;20030;-79
2022/01/27 10:59:40;;;;;;;15.32;11.48;;;7.10;99.90;;;;;;4822511;29;20041;-80
2022/01/27 11:02:12;;;;;;;17.60;11.70;;;7.10;99.90;;;;;;4834851;29;20401;-79
2022/01/27 11:04:40;;;;;;;22.88;13.48;;;7.20;99.90;;;;;;4810102;29;20390;-80
2022/01/27 11:07:10;;;;;;;16.55;11.38;;;7.20;99.90;;;;;;4804263;29;20038;-80
2022/01/27 11:09:41;;;;;;;16.42;10.57;;;7.20;99.90;;;;;;4805241;29;20049;-80
2022/01/27 11:12:14;;;;;;;22.48;15.48;;;7.20;99.90;;;;;;4821042;29;20032;-79
2022/01/27 11:14:41;;;;;;;17.23;12.90;;;7.30;99.90;;;;;;4823582;29;20400;-79
2022/01/27 11:17:15;;;;;;;31.35;15.02;;;7.30;99.90;;;;;;4820985;29;20030;-80
2022/01/27 11:25:19;;;;;;;26.80;14.75;;;7.40;99.90;;;;;;4820178;29;20046;-80
2022/01/27 11:27:48;;;;;;;24.75;14.98;;;7.40;99.90;;;;;;4825100;29;20026;-80
2022/01/27 11:30:35;;;;;;;26.45;16.17;;;7.50;99.90;;;;;;4810544;29;20025;-80
2022/01/27 11:33:03;;;;;;;28.45;16.83;;;7.50;99.90;;;;;;4821233;29;20037;-81
2022/01/27 11:35:30;;;;;;;23.33;14.68;;;7.60;99.90;;;;;;4812260;29;20030;-80
2022/01/27 11:38:00;;;;;;;27.33;15.75;;;7.60;99.90;;;;;;4811360;29;20037;-80
2022/01/27 11:40:36;;;;;;;27.85;17.38;;;7.60;99.90;;;;;;4822734;29;20032;-80
2022/01/27 11:43:04;;;;;;;33.33;19.33;;;7.70;99.90;;;;;;4841256;29;20029;-80
2022/01/27 11:45:33;;;;;;;20.83;14.90;;;7.70;99.90;;;;;;4824927;29;20029;-80
2022/01/27 11:48:15;;;;;;;28.00;17.33;;;7.70;99.90;;;;;;4823130;29;20026;-80
2022/01/27 11:50:58;;;;;;;29.73;17.13;;;7.70;99.90;;;;;;4826038;29;20029;-79
2022/01/27 11:53:36;;;;;;;32.85;17.58;;;7.80;99.90;;;;;;4841847;29;20049;-80
2022/01/27 11:56:08;;;;;;;25.77;17.17;;;7.80;99.90;;;;;;4841658;29;20033;-80
2022/01/27 11:58:48;;;;;;;31.92;16.85;;;7.80;99.90;;;;;;4841614;29;20028;-79
2022/01/27 12:01:21;;;;;;;34.83;18.17;;;7.90;99.90;;;;;;4840493;29;20038;-79
2022/01/27 12:04:02;;;;;;;34.33;18.65;;;7.90;99.90;;;;;;4841537;29;20037;-79
2022/01/27 12:06:32;;;;;;;36.83;19.48;;;7.90;99.90;;;;;;4827274;29;20478;-79
2022/01/27 12:09:17;;;;;;;29.17;18.63;;;8.00;99.90;;;;;;4844419;29;20044;-79
2022/01/27 12:11:55;;;;;;;30.00;19.90;;;8.00;99.90;;;;;;4841905;29;20029;-79
2022/01/27 12:14:46;;;;;;;39.80;20.25;;;8.00;99.90;;;;;;4841792;29;20059;-79
2022/01/27 12:17:13;;;;;;;30.90;18.85;;;8.00;99.90;;;;;;4825223;29;20030;-80
2022/01/27 12:20:00;;;;;;;35.50;20.38;;;8.00;99.90;;;;;;4825854;29;20037;-79
2022/01/27 12:22:42;;;;;;;28.40;16.70;;;8.00;99.90;;;;;;4813098;29;20054;-79
2022/01/27 12:25:10;;;;;;;30.55;19.52;;;8.00;99.90;;;;;;4827062;29;20046;-79
2022/01/27 12:27:37;;;;;;;33.50;17.98;;;8.00;99.90;;;;;;4826176;29;20374;-82
2022/01/27 12:30:06;;;;;;;37.15;18.88;;;8.00;99.90;;;;;;4810014;29;20477;-79
2022/01/27 12:32:33;;;;;;;22.95;15.55;;;8.00;99.90;;;;;;4824847;29;20104;-77
2022/01/27 12:35:08;;;;;;;30.35;16.83;;;8.00;99.90;;;;;;4826119;29;20026;-77
2022/01/27 12:37:37;;;;;;;30.30;16.67;;;8.00;99.90;;;;;;4824832;29;20378;-76
2022/01/27 12:40:33;;;;;;;26.48;16.17;;;8.00;99.90;;;;;;4811576;29;20405;-77
2022/01/27 12:43:03;;;;;;;23.75;13.77;;;8.10;99.90;;;;;;4806820;29;20042;-77
2022/01/27 12:45:35;;;;;;;32.50;17.92;;;8.10;99.90;;;;;;4838313;29;20544;-77
2022/01/27 12:48:06;;;;;;;27.85;16.15;;;8.10;99.90;;;;;;4811635;29;20048;-77
2022/01/27 12:50:34;;;;;;;25.90;15.52;;;8.10;99.90;;;;;;4824238;29;20474;-77
2022/01/27 12:53:08;;;;;;;30.98;17.85;;;8.10;99.90;;;;;;4823070;29;20018;-79
2022/01/27 12:55:37;;;;;;;27.50;16.15;;;8.10;99.90;;;;;;4826770;29;20512;-78
2022/01/27 12:58:17;;;;;;;37.67;19.73;;;8.10;99.90;;;;;;4824776;29;20478;-78
2022/01/27 13:00:50;;;;;;;30.10;16.70;;;8.10;99.90;;;;;;4823392;29;20049;-78
2022/01/27 13:03:19;;;;;;;27.83;16.15;;;8.20;99.90;;;;;;4828480;29;20048;-78
2022/01/27 13:05:48;;;;;;;26.67;14.85;;;8.30;99.90;;;;;;4826108;29;20042;-78
2022/01/27 13:08:18;;;;;;;26.20;15.75;;;8.40;99.90;;;;;;4823664;29;20045;-78
2022/01/27 13:10:54;;;;;;;28.77;15.15;;;8.40;99.90;;;;;;4837103;29;20472;-78
2022/01/27 13:13:27;;;;;;;26.52;14.88;;;8.50;99.90;;;;;;4823768;29;20504;-78
2022/01/27 13:15:57;;;;;;;29.25;14.02;;;8.50;99.90;;;;;;4827380;29;20591;-78
2022/01/27 13:18:33;;;;;;;27.33;13.40;;;8.60;99.90;;;;;;4826341;29;20030;-78
2022/01/27 13:21:00;;;;;;;26.60;14.23;;;8.70;99.90;;;;;;4820829;29;20034;-78
2022/01/27 13:23:38;;;;;;;19.35;12.18;;;8.70;99.90;;;;;;4840491;29;20295;-80
2022/01/27 13:26:09;;;;;;;22.95;12.63;;;8.70;99.90;;;;;;4825758;29;20903;-79
2022/01/27 13:28:37;;;;;;;22.80;11.75;;;8.70;99.90;;;;;;4812195;29;20037;-80
2022/01/27 13:31:07;;;;;;;21.23;11.57;;;8.70;99.90;;;;;;4834762;29;20052;-79
2022/01/27 13:33:40;;;;;;;25.25;11.80;;;8.70;99.90;;;;;;4841816;29;20025;-79
2022/01/27 13:36:16;;;;;;;32.75;13.70;;;8.70;99.90;;;;;;4809408;29;20026;-79
2022/01/27 13:39:12;;;;;;;22.92;10.93;;;8.80;99.90;;;;;;4821716;29;20041;-79